createdAt,value
2018-12-18T00:01:11.807Z,96887.10
2018-12-18T00:03:41.119Z,96885.69
2018-12-18T00:06:10.418Z,96882.97
2018-12-18T00:08:39.590Z,96882.73
2018-12-18T00:11:11.105Z,96887.58
2018-12-18T00:13:40.292Z,96851.59
2018-12-18T00:16:09.584Z,96883.84
2018-12-18T00:18:38.871Z,96884.30
2018-12-18T00:21:07.962Z,96875.20
2018-12-18T00:23:37.046Z,96881.62
2018-12-18T00:26:06.142Z,96878.83
2018-12-18T00:28:35.254Z,96880.40
2018-12-18T00:31:04.533Z,96873.33
2018-12-18T00:33:33.638Z,96868.78
2018-12-18T00:36:02.738Z,96870.89
2018-12-18T00:38:31.881Z,96839.52
2018-12-18T00:41:01.316Z,96865.98
2018-12-18T00:43:30.395Z,96862.77
2018-12-18T00:45:59.471Z,96871.92
2018-12-18T00:48:28.590Z,96868.96
2018-12-18T00:50:57.785Z,96867.39
2018-12-18T00:53:27.077Z,96876.97
2018-12-18T00:55:56.183Z,96879.11
2018-12-18T00:58:25.475Z,96883.25
2018-12-18T01:00:54.657Z,96887.99
2018-12-18T01:03:23.778Z,96886.52
2018-12-18T01:05:52.906Z,96883.56
2018-12-18T01:08:22.221Z,96886.83
2018-12-18T01:10:51.303Z,96888.87
2018-12-18T01:13:20.520Z,96889.92
2018-12-18T01:15:49.807Z,96890.91
2018-12-18T01:18:18.921Z,96895.58
2018-12-18T01:20:48.009Z,96893.55
2018-12-18T01:23:17.097Z,96894.14
2018-12-18T01:25:46.265Z,96903.45
2018-12-18T01:28:15.349Z,96896.34
2018-12-18T01:30:44.455Z,96898.73
2018-12-18T01:33:13.686Z,96896.69
2018-12-18T01:35:42.786Z,96893.66
2018-12-18T01:38:11.882Z,96896.05
2018-12-18T01:40:41.306Z,96883.71
2018-12-18T01:43:10.439Z,96886.41
2018-12-18T01:45:39.859Z,96882.70
2018-12-18T01:48:09.031Z,96881.78
2018-12-18T01:50:38.207Z,96875.08
2018-12-18T01:53:07.324Z,96873.50
2018-12-18T01:55:36.421Z,96873.64
2018-12-18T01:58:05.582Z,96873.58
2018-12-18T02:00:34.783Z,96872.06
2018-12-18T02:03:04.011Z,96876.14
2018-12-18T02:05:33.098Z,96869.59
2018-12-18T02:08:02.183Z,96867.45
2018-12-18T02:10:31.636Z,96868.84
2018-12-18T02:13:00.720Z,96867.56
2018-12-18T02:15:30.027Z,96865.89
2018-12-18T02:17:59.251Z,96857.27
2018-12-18T02:20:28.347Z,96864.04
2018-12-18T02:22:57.459Z,96862.30
2018-12-18T02:25:26.579Z,96630.89
2018-12-18T02:27:55.696Z,96855.91
2018-12-18T02:30:24.812Z,96857.44
2018-12-18T02:32:54.029Z,96852.87
2018-12-18T02:35:23.227Z,96856.84
2018-12-18T02:37:52.306Z,96852.45
2018-12-18T02:40:21.499Z,96855.78
2018-12-18T02:42:50.580Z,96858.85
2018-12-18T02:45:19.679Z,96862.56
2018-12-18T02:47:48.778Z,96856.95
2018-12-18T02:50:17.974Z,96856.38
2018-12-18T02:52:47.066Z,96858.33
2018-12-18T02:58:12.318Z,96861.55
2018-12-18T03:02:07.906Z,96857.62
2018-12-18T03:08:58.881Z,96858.80
2018-12-18T03:11:31.639Z,96851.55
2018-12-18T03:14:03.310Z,96849.70
2018-12-18T03:16:33.592Z,96852.53
2018-12-18T03:19:04.423Z,96849.42
2018-12-18T03:24:23.426Z,96842.62
2018-12-18T03:36:24.788Z,96828.36
2018-12-18T03:39:06.491Z,96827.98
2018-12-18T03:47:47.888Z,96817.98
2018-12-18T03:50:24.181Z,96814.94
2018-12-18T03:56:27.609Z,96820.22
2018-12-18T04:02:21.952Z,96813.73
2018-12-18T04:04:52.032Z,96819.94
2018-12-18T04:07:21.973Z,96822.77
2018-12-18T04:09:52.110Z,96821.63
2018-12-18T04:12:22.924Z,96827.88
2018-12-18T04:14:53.401Z,96832.44
2018-12-18T04:17:23.655Z,96837.05
2018-12-18T04:19:55.425Z,96841.05
2018-12-18T04:22:27.656Z,96837.20
2018-12-18T04:25:05.826Z,96836.09
2018-12-18T04:27:36.273Z,96834.23
2018-12-18T04:30:08.674Z,96829.83
2018-12-18T04:32:38.949Z,96831.98
2018-12-18T04:35:09.223Z,96839.42
2018-12-18T04:37:43.749Z,96831.63
2018-12-18T04:40:16.593Z,96834.66
2018-12-18T04:42:45.744Z,96826.97
2018-12-18T04:45:15.782Z,96823.80
2018-12-18T04:47:45.051Z,96821.95
2018-12-18T04:50:14.242Z,96825.75
2018-12-18T04:52:43.948Z,96818.42
2018-12-18T04:55:13.061Z,96811.97
2018-12-18T04:57:42.260Z,96803.77
2018-12-18T05:00:11.478Z,96804.80
2018-12-18T05:02:40.636Z,96806.53
2018-12-18T05:05:09.758Z,96802.63
2018-12-18T05:07:38.934Z,96802.89
2018-12-18T05:10:08.126Z,96802.88
2018-12-18T05:12:37.279Z,96802.69
2018-12-18T05:15:06.563Z,96809.34
2018-12-18T05:17:35.749Z,96800.63
2018-12-18T05:20:05.223Z,96798.13
2018-12-18T05:22:34.514Z,96806.18
2018-12-18T05:25:03.693Z,96805.28
2018-12-18T05:27:32.857Z,96799.23
2018-12-18T05:30:02.170Z,96803.62
2018-12-18T05:32:31.292Z,96806.33
2018-12-18T05:35:00.615Z,96809.92
2018-12-18T05:37:29.737Z,96805.06
2018-12-18T05:39:58.845Z,96808.05
2018-12-18T05:42:28.029Z,96807.61
2018-12-18T05:44:57.177Z,96815.30
2018-12-18T05:47:26.255Z,96817.86
2018-12-18T05:49:55.353Z,96816.17
2018-12-18T05:52:24.457Z,96817.29
2018-12-18T05:54:53.545Z,96825.55
2018-12-18T05:57:22.697Z,96828.25
2018-12-18T05:59:52.094Z,96830.47
2018-12-18T06:02:21.529Z,96834.50
2018-12-18T06:04:50.651Z,96818.86
2018-12-18T06:07:19.737Z,96831.67
2018-12-18T06:09:48.876Z,96831.59
2018-12-18T06:12:18.115Z,96830.00
2018-12-18T06:14:47.482Z,96833.38
2018-12-18T06:17:16.626Z,96825.73
2018-12-18T06:19:46.049Z,96832.80
2018-12-18T06:22:15.144Z,96833.02
2018-12-18T06:24:44.255Z,96831.67
2018-12-18T06:27:13.361Z,96833.38
2018-12-18T06:29:42.453Z,96835.23
2018-12-18T06:32:11.563Z,96842.40
2018-12-18T06:34:40.681Z,96844.45
2018-12-18T06:37:09.890Z,96842.62
2018-12-18T06:39:39.390Z,96843.26
2018-12-18T06:42:08.606Z,96842.67
2018-12-18T06:44:37.759Z,96836.07
2018-12-18T06:47:06.899Z,96840.64
2018-12-18T06:49:36.227Z,96839.86
2018-12-18T06:52:05.678Z,96838.53
2018-12-18T06:54:34.802Z,96827.84
2018-12-18T06:57:04.559Z,96831.64
2018-12-18T06:59:33.781Z,96821.14
2018-12-18T07:02:02.875Z,96833.93
2018-12-18T07:04:32.021Z,96835.94
2018-12-18T07:07:01.159Z,96831.59
2018-12-18T07:09:30.312Z,96831.87
2018-12-18T07:11:59.442Z,96830.87
2018-12-18T07:14:28.626Z,96829.40
2018-12-18T07:16:57.943Z,96824.10
2018-12-18T07:19:27.028Z,96828.98
2018-12-18T07:21:56.116Z,96828.44
2018-12-18T07:24:25.255Z,96825.70
2018-12-18T07:26:54.339Z,96835.16
2018-12-18T07:29:23.678Z,96836.53
2018-12-18T07:31:52.808Z,96838.03
2018-12-18T07:34:21.906Z,96834.38
2018-12-18T07:36:51.009Z,96832.95
2018-12-18T07:39:20.178Z,96829.90
2018-12-18T07:41:49.380Z,96836.61
2018-12-18T07:44:18.519Z,96832.95
2018-12-18T07:46:47.630Z,96835.66
2018-12-18T07:49:16.762Z,96836.98
2018-12-18T07:51:45.890Z,96834.55
2018-12-18T07:54:15.009Z,96840.45
2018-12-18T07:56:44.166Z,96830.43
2018-12-18T07:59:13.261Z,96835.66
2018-12-18T08:01:42.398Z,96833.44
2018-12-18T08:04:11.522Z,96844.59
2018-12-18T08:06:40.808Z,96848.00
2018-12-18T08:09:09.931Z,96852.63
2018-12-18T08:11:39.147Z,96846.69
2018-12-18T08:14:08.346Z,96836.11
2018-12-18T08:16:37.461Z,96838.41
2018-12-18T08:19:06.649Z,96829.25
2018-12-18T08:21:35.739Z,96831.75
2018-12-18T08:24:04.843Z,96829.19
2018-12-18T08:26:34.059Z,96824.05
2018-12-18T08:29:03.390Z,96823.73
2018-12-18T08:31:32.743Z,96821.73
2018-12-18T08:34:01.934Z,96819.47
2018-12-18T08:36:31.047Z,96818.50
2018-12-18T08:39:00.163Z,96815.81
2018-12-18T08:41:29.276Z,96816.77
2018-12-18T08:43:58.359Z,96822.45
2018-12-18T08:46:27.575Z,96801.59
2018-12-18T08:48:56.854Z,96799.19
2018-12-18T08:51:26.208Z,96800.47
2018-12-18T08:53:55.310Z,96801.99
2018-12-18T08:56:24.452Z,96800.83
2018-12-18T08:58:53.570Z,96799.33
2018-12-18T09:01:22.786Z,96797.98
2018-12-18T09:03:51.917Z,96800.79
2018-12-18T09:06:21.068Z,96796.26
2018-12-18T09:08:50.155Z,96794.09
2018-12-18T09:11:19.370Z,96786.30
2018-12-18T09:13:48.580Z,96780.54
2018-12-18T09:16:23.362Z,96777.31
2018-12-18T09:18:52.538Z,96781.16
2018-12-18T09:21:21.646Z,96777.61
2018-12-18T09:23:50.767Z,96769.91
2018-12-18T09:26:19.854Z,96762.13
2018-12-18T09:28:49.249Z,96757.59
2018-12-18T09:31:18.550Z,96758.34
2018-12-18T09:33:47.764Z,96756.23
2018-12-18T09:36:16.977Z,96682.88
2018-12-18T09:38:51.642Z,96749.94
2018-12-18T09:41:25.889Z,96748.16
2018-12-18T09:44:01.091Z,96751.16
2018-12-18T09:46:30.237Z,96751.88
2018-12-18T09:48:59.758Z,96741.64
2018-12-18T09:51:28.931Z,96742.03
2018-12-18T09:53:58.085Z,96738.28
2018-12-18T09:56:27.237Z,96734.11
2018-12-18T09:58:56.456Z,96726.75
2018-12-18T10:01:25.577Z,96726.81
2018-12-18T10:03:55.634Z,96722.63
2018-12-18T10:06:24.740Z,96727.52
2018-12-18T10:08:53.892Z,96721.45
2018-12-18T10:11:23.050Z,96719.44
2018-12-18T10:13:52.381Z,96716.53
2018-12-18T10:16:21.474Z,96713.34
2018-12-18T10:18:50.642Z,96705.27
2018-12-18T10:21:19.843Z,96704.31
2018-12-18T10:23:49.036Z,96697.14
2018-12-18T10:26:18.101Z,96694.41
2018-12-18T10:28:47.290Z,96689.66
2018-12-18T10:31:16.393Z,96694.11
2018-12-18T10:33:45.655Z,96692.63
2018-12-18T10:36:14.783Z,96691.18
2018-12-18T10:38:43.985Z,96691.81
2018-12-18T10:41:13.381Z,96683.38
2018-12-18T10:43:42.790Z,96676.38
2018-12-18T10:46:12.004Z,96671.88
2018-12-18T10:48:41.151Z,96672.44
2018-12-18T10:51:10.267Z,96667.47
2018-12-18T10:53:39.607Z,96664.53
2018-12-18T10:56:08.712Z,96664.72
2018-12-18T10:58:37.830Z,96660.11
2018-12-18T11:01:12.487Z,96661.23
2018-12-18T11:03:41.733Z,96661.06
2018-12-18T11:06:11.010Z,96656.34
2018-12-18T11:08:40.388Z,96641.81
2018-12-18T11:11:10.470Z,96644.91
2018-12-18T11:13:39.705Z,96641.30
2018-12-18T11:16:08.907Z,96643.31
2018-12-18T11:18:38.129Z,96641.03
2018-12-18T11:21:07.309Z,96643.28
2018-12-18T11:23:36.421Z,96630.32
2018-12-18T11:26:05.718Z,96631.66
2018-12-18T11:28:34.880Z,96629.94
2018-12-18T11:31:04.264Z,96621.42
2018-12-18T11:33:33.492Z,96619.84
2018-12-18T11:36:02.611Z,96615.96
2018-12-18T11:38:31.767Z,96606.41
2018-12-18T11:41:00.904Z,96599.81
2018-12-18T11:43:30.080Z,96589.43
2018-12-18T11:45:59.399Z,96571.86
2018-12-18T11:48:28.569Z,96579.29
2018-12-18T11:50:57.787Z,96567.88
2018-12-18T11:53:26.962Z,96562.00
2018-12-18T11:55:56.079Z,96558.15
2018-12-18T11:58:25.279Z,96547.17
2018-12-18T12:00:54.567Z,96554.95
2018-12-18T12:03:23.708Z,96545.73
2018-12-18T12:05:52.866Z,96540.77
2018-12-18T12:08:22.052Z,96546.47
2018-12-18T12:10:51.150Z,96542.43
2018-12-18T12:13:20.380Z,96526.36
2018-12-18T12:15:49.666Z,96527.04
2018-12-18T12:18:18.814Z,96514.06
2018-12-18T12:20:48.050Z,96504.23
2018-12-18T12:23:17.301Z,96503.47
2018-12-18T12:25:46.569Z,96502.44
2018-12-18T12:28:15.835Z,96500.88
2018-12-18T12:30:45.009Z,96498.51
2018-12-18T12:33:14.351Z,96503.91
2018-12-18T12:35:43.565Z,96504.27
2018-12-18T12:38:12.709Z,96503.55
2018-12-18T12:40:41.938Z,96507.64
2018-12-18T12:43:11.127Z,96505.27
2018-12-18T12:45:40.276Z,96505.20
2018-12-18T12:48:11.375Z,96497.06
2018-12-18T12:50:40.578Z,96495.95
2018-12-18T12:53:09.971Z,96488.72
2018-12-18T12:55:39.160Z,96466.79
2018-12-18T12:58:08.360Z,96460.88
2018-12-18T13:00:39.977Z,96469.99
2018-12-18T13:03:09.095Z,96448.73
2018-12-18T13:05:38.179Z,96455.33
2018-12-18T13:08:07.306Z,96450.84
2018-12-18T13:10:36.503Z,96450.64
2018-12-18T13:13:06.004Z,96440.11
2018-12-18T13:15:35.326Z,96447.56
2018-12-18T13:18:04.704Z,96452.69
2018-12-18T13:20:33.902Z,96453.95
2018-12-18T13:23:03.024Z,96438.53
2018-12-18T13:25:32.196Z,96435.61
2018-12-18T13:28:01.579Z,96440.73
2018-12-18T13:30:30.781Z,96430.64
2018-12-18T13:33:00.009Z,96420.34
2018-12-18T13:35:29.407Z,96436.59
2018-12-18T13:37:58.658Z,96427.51
2018-12-18T13:40:27.907Z,96418.88
2018-12-18T13:42:57.398Z,96420.95
2018-12-18T13:45:26.519Z,96409.08
2018-12-18T13:47:55.702Z,96396.48
2018-12-18T13:50:24.861Z,96395.25
2018-12-18T13:52:53.998Z,96391.02
2018-12-18T13:55:23.195Z,96380.53
2018-12-18T13:57:52.351Z,96370.83
2018-12-18T14:00:21.599Z,96368.45
2018-12-18T14:02:50.761Z,96375.94
2018-12-18T14:05:19.864Z,96364.87
2018-12-18T14:07:49.067Z,96368.16
2018-12-18T14:10:18.284Z,96375.87
2018-12-18T14:12:59.099Z,96375.36
2018-12-18T14:15:28.481Z,96391.38
2018-12-18T14:17:57.653Z,96384.67
2018-12-18T14:20:26.762Z,96382.04
2018-12-18T14:22:55.938Z,96372.03
2018-12-18T14:25:25.255Z,96357.72
2018-12-18T14:27:54.452Z,96354.86
2018-12-18T14:30:23.620Z,96359.56
2018-12-18T14:32:52.950Z,96355.80
2018-12-18T14:35:22.220Z,96358.41
2018-12-18T14:37:51.458Z,96345.86
2018-12-18T14:40:20.820Z,96339.72
2018-12-18T14:42:49.983Z,96348.71
2018-12-18T14:45:19.244Z,96342.56
2018-12-18T14:47:48.378Z,96342.69
2018-12-18T14:50:17.624Z,96344.38
2018-12-18T14:52:46.810Z,96347.29
2018-12-18T14:55:15.918Z,96342.99
2018-12-18T14:57:46.230Z,96324.63
2018-12-18T15:00:15.632Z,96318.14
2018-12-18T15:02:44.850Z,96325.70
2018-12-18T15:05:14.054Z,96322.08
2018-12-18T15:07:43.178Z,96324.83
2018-12-18T15:10:12.346Z,96322.11
2018-12-18T15:12:46.931Z,96320.37
2018-12-18T15:15:16.245Z,96313.59
2018-12-18T15:17:45.495Z,96315.73
2018-12-18T15:20:14.743Z,96314.58
2018-12-18T15:22:43.822Z,96306.84
2018-12-18T15:25:13.122Z,96302.67
2018-12-18T15:27:42.540Z,96302.88
2018-12-18T15:30:13.359Z,96291.58
2018-12-18T15:32:42.575Z,96294.52
2018-12-18T15:35:11.889Z,96291.60
2018-12-18T15:37:41.379Z,96295.18
2018-12-18T15:40:10.581Z,96289.87
2018-12-18T15:42:39.920Z,96304.94
2018-12-18T15:45:09.461Z,96300.52
2018-12-18T15:47:38.725Z,96294.64
2018-12-18T15:50:09.033Z,96285.62
2018-12-18T15:52:38.227Z,96282.43
2018-12-18T15:55:07.645Z,96293.51
2018-12-18T15:57:36.815Z,96292.58
2018-12-18T16:00:07.193Z,96289.82
2018-12-18T16:02:36.356Z,96288.38
2018-12-18T16:05:06.050Z,96284.98
2018-12-18T16:07:35.179Z,96286.48
2018-12-18T16:10:04.843Z,96287.22
2018-12-18T16:12:34.451Z,96290.69
2018-12-18T16:15:03.680Z,96287.02
2018-12-18T16:17:34.187Z,96280.48
2018-12-18T16:20:03.577Z,96278.73
2018-12-18T16:22:32.978Z,96276.35
2018-12-18T16:25:02.174Z,96274.33
2018-12-18T16:27:31.258Z,96279.89
2018-12-18T16:30:00.471Z,96279.61
2018-12-18T16:32:29.584Z,96290.63
2018-12-18T16:34:58.655Z,96288.00
2018-12-18T16:37:28.620Z,96294.16
2018-12-18T16:39:57.905Z,96293.55
2018-12-18T16:42:27.019Z,96291.53
2018-12-18T16:44:56.166Z,96291.52
2018-12-18T16:47:25.366Z,96291.95
2018-12-18T16:49:54.497Z,96298.88
2018-12-18T16:52:23.874Z,96291.86
2018-12-18T16:54:53.059Z,96291.73
2018-12-18T16:57:22.271Z,96293.55
2018-12-18T16:59:51.555Z,96289.55
2018-12-18T17:02:21.275Z,96293.20
2018-12-18T17:04:50.497Z,96291.38
2018-12-18T17:07:20.689Z,96290.43
2018-12-18T17:09:49.903Z,96293.55
2018-12-18T17:12:19.172Z,96291.13
2018-12-18T17:14:48.331Z,96281.78
2018-12-18T17:17:17.694Z,96289.43
2018-12-18T17:19:46.907Z,96290.02
2018-12-18T17:22:16.181Z,96291.14
2018-12-18T17:24:45.497Z,96290.23
2018-12-18T17:27:14.861Z,96286.14
2018-12-18T17:29:44.196Z,96277.88
2018-12-18T17:32:13.313Z,96280.67
2018-12-18T17:34:42.526Z,96278.39
2018-12-18T17:37:11.909Z,96282.31
2018-12-18T17:39:41.191Z,96282.78
2018-12-18T17:42:10.381Z,96282.63
2018-12-18T17:44:41.111Z,96277.27
2018-12-18T17:47:10.749Z,96282.84
2018-12-18T17:49:39.945Z,96288.55
2018-12-18T17:52:09.121Z,96284.28
2018-12-18T17:54:38.307Z,96280.86
2018-12-18T17:57:07.403Z,96280.97
2018-12-18T17:59:36.653Z,96284.81
2018-12-18T18:02:06.002Z,96284.86
2018-12-18T18:04:35.726Z,96284.41
2018-12-18T18:07:04.917Z,96280.37
2018-12-18T18:09:34.044Z,96280.97
2018-12-18T18:12:03.231Z,96280.22
2018-12-18T18:14:32.869Z,96281.50
2018-12-18T18:17:02.016Z,96279.09
2018-12-18T18:19:31.208Z,96274.48
2018-12-18T18:22:00.403Z,96274.04
2018-12-18T18:24:29.598Z,96267.08
2018-12-18T18:26:58.752Z,96274.85
2018-12-18T18:29:27.851Z,96278.68
2018-12-18T18:31:56.922Z,96270.75
2018-12-18T18:34:26.176Z,96268.73
2018-12-18T18:36:55.244Z,96278.62
2018-12-18T18:39:24.396Z,96279.85
2018-12-18T18:41:53.621Z,96273.86
2018-12-18T18:44:22.772Z,96272.73
2018-12-18T18:46:51.900Z,96268.80
2018-12-18T18:49:21.200Z,96265.28
2018-12-18T18:51:50.497Z,96255.98
2018-12-18T18:54:19.669Z,96244.94
2018-12-18T18:56:48.889Z,96250.03
2018-12-18T18:59:18.066Z,96248.84
2018-12-18T19:01:47.194Z,96250.72
2018-12-18T19:04:16.358Z,96247.53
2018-12-18T19:06:45.670Z,96244.97
2018-12-18T19:09:15.398Z,96242.87
2018-12-18T19:11:44.566Z,96239.25
2018-12-18T19:14:13.944Z,96234.17
2018-12-18T19:16:43.160Z,96222.02
2018-12-18T19:19:12.266Z,96221.55
2018-12-18T19:21:41.455Z,96220.58
2018-12-18T19:24:10.548Z,96224.66
2018-12-18T19:26:39.743Z,96220.88
2018-12-18T19:29:08.971Z,96217.91
2018-12-18T19:31:38.119Z,96218.44
2018-12-18T19:34:07.337Z,96215.25
2018-12-18T19:36:37.063Z,96201.08
2018-12-18T19:39:08.335Z,96195.68
2018-12-18T19:41:37.500Z,96196.44
2018-12-18T19:44:06.700Z,96204.92
2018-12-18T19:46:35.919Z,96205.80
2018-12-18T19:49:05.523Z,96196.39
2018-12-18T19:51:34.607Z,96200.75
2018-12-18T19:54:03.823Z,96181.41
2018-12-18T19:56:32.983Z,96170.89
2018-12-18T19:59:02.103Z,96168.58
2018-12-18T20:01:31.935Z,96167.58
2018-12-18T20:04:01.093Z,96172.23
2018-12-18T20:06:30.185Z,96165.48
2018-12-18T20:08:59.287Z,96171.73
2018-12-18T20:11:28.463Z,96176.09
2018-12-18T20:13:57.618Z,96179.36
2018-12-18T20:16:29.255Z,96178.69
2018-12-18T20:18:59.149Z,96172.28
2018-12-18T20:21:28.356Z,96176.13
2018-12-18T20:23:59.762Z,96175.31
2018-12-18T20:26:29.537Z,96176.76
2018-12-18T20:29:00.644Z,96174.45
2018-12-18T20:31:30.355Z,96181.81
2018-12-18T20:33:59.586Z,96182.00
2018-12-18T20:36:30.663Z,96190.45
2018-12-18T20:39:00.350Z,96184.31
2018-12-18T20:41:29.507Z,96185.62
2018-12-18T20:43:58.611Z,96180.14
2018-12-18T20:46:27.806Z,96180.04
2018-12-18T20:48:57.091Z,96184.05
2018-12-18T20:51:26.223Z,96180.70
2018-12-18T20:53:55.563Z,96171.32
2018-12-18T20:56:24.889Z,96175.77
2018-12-18T20:58:54.009Z,96182.80
2018-12-18T21:01:23.133Z,96177.10
2018-12-18T21:03:52.394Z,96179.29
2018-12-18T21:06:21.515Z,96185.14
2018-12-18T21:08:50.806Z,96175.52
2018-12-18T21:11:20.997Z,96180.95
2018-12-18T21:13:50.327Z,96173.95
2018-12-18T21:16:19.725Z,96166.56
2018-12-18T21:18:48.832Z,96169.03
2018-12-18T21:21:18.083Z,96164.08
2018-12-18T21:23:47.317Z,96164.66
2018-12-18T21:26:17.189Z,96165.79
2018-12-18T21:28:46.668Z,96159.39
2018-12-18T21:31:15.909Z,96159.27
2018-12-18T21:33:45.152Z,96152.80
2018-12-18T21:36:14.385Z,96155.23
2018-12-18T21:38:43.500Z,96144.69
2018-12-18T21:41:12.700Z,96128.30
2018-12-18T21:43:42.053Z,96121.91
2018-12-18T21:46:11.232Z,96118.67
2018-12-18T21:48:40.497Z,96116.70
2018-12-18T21:51:09.622Z,96118.22
2018-12-18T21:53:38.748Z,96136.34
2018-12-18T21:56:08.234Z,96141.23
2018-12-18T21:58:37.430Z,96151.31
2018-12-18T22:01:06.570Z,96145.69
2018-12-18T22:03:35.695Z,96134.02
2018-12-18T22:06:04.922Z,96148.73
2018-12-18T22:08:36.977Z,96143.05
2018-12-18T22:11:05.395Z,96130.18
2018-12-18T22:13:34.730Z,96114.55
2018-12-18T22:16:03.962Z,96099.30
2018-12-18T22:18:33.352Z,96093.64
2018-12-18T22:21:02.786Z,96088.17
2018-12-18T22:23:31.950Z,96077.19
2018-12-18T22:26:01.130Z,96053.72
2018-12-18T22:28:30.237Z,96051.77
2018-12-18T22:30:59.435Z,96051.47
2018-12-18T22:33:28.642Z,96060.27
2018-12-18T22:35:57.865Z,96050.05
2018-12-18T22:38:26.946Z,96045.81
2018-12-18T22:40:56.931Z,96031.25
2018-12-18T22:43:26.210Z,96031.98
2018-12-18T22:45:55.339Z,96026.52
2018-12-18T22:48:24.522Z,96021.84
2018-12-18T22:50:53.647Z,96021.16
2018-12-18T22:53:23.134Z,96020.88
2018-12-18T22:55:52.231Z,96013.38
2018-12-18T22:58:21.423Z,96008.92
2018-12-18T23:00:53.600Z,96021.70
2018-12-18T23:03:22.903Z,96010.41
2018-12-18T23:05:52.019Z,96002.94
2018-12-18T23:08:21.103Z,95995.25
2018-12-18T23:10:50.311Z,95997.88
2018-12-18T23:13:23.486Z,96000.82
2018-12-18T23:15:52.785Z,96002.92
2018-12-18T23:18:22.367Z,96012.32
2018-12-18T23:20:51.889Z,96020.97
2018-12-18T23:23:21.145Z,96028.23
2018-12-18T23:25:50.301Z,96018.25
2018-12-18T23:28:19.415Z,96013.59
2018-12-18T23:30:48.560Z,96015.63
2018-12-18T23:33:17.779Z,96023.88
2018-12-18T23:35:46.951Z,96012.17
2018-12-18T23:38:16.192Z,95999.47
2018-12-18T23:40:45.284Z,95998.03
2018-12-18T23:43:14.968Z,95992.34
2018-12-18T23:45:44.174Z,95994.20
2018-12-18T23:48:13.703Z,95987.53
2018-12-18T23:50:42.867Z,95987.83
2018-12-18T23:53:12.010Z,95983.73
2018-12-18T23:55:41.275Z,95985.70
2018-12-18T23:58:10.394Z,95973.87
